Time;durP1;ratioP1;P1;durP2;ratioP2;P2;SDS_P1;SDS_P2;PMS_P1;PMS_P2;Temp;Humidity;BMP_temperature;BMP_pressure;BME280_temperature;BME280_humidity;BME280_pressure;Samples;Min_cycle;Max_cycle;Signal;HPM_P1;HPM_P2
2022/04/25 00:01:16;;;;;;;5.90;5.30;;;;;;;15.63;71.65;100810.41;5053005;28;20020;-82
2022/04/25 00:03:42;;;;;;;7.00;5.75;;;;;;;16.01;71.40;100870.50;5053194;28;20036;-82
2022/04/25 00:06:08;;;;;;;6.85;5.90;;;;;;;15.86;71.16;100844.56;5052871;28;20531;-82
2022/04/25 00:08:33;;;;;;;7.25;5.60;;;;;;;16.00;71.21;100867.00;5052933;28;20041;-82
2022/04/25 00:10:59;;;;;;;7.85;6.38;;;;;;;15.85;71.36;100848.03;5034990;28;20075;-81
2022/04/25 00:13:24;;;;;;;7.60;6.10;;;;;;;15.86;71.42;100844.56;5052335;28;20068;-82
2022/04/25 00:15:52;;;;;;;6.85;6.15;;;;;;;15.73;71.09;100816.03;5052127;28;20134;-82
2022/04/25 00:18:18;;;;;;;6.20;5.60;;;;;;;15.96;71.25;100853.63;5034934;28;20054;-82
2022/04/25 00:20:44;;;;;;;;;;;;;;;16.04;71.58;100863.63;5035092;28;20027;-82
2022/04/25 00:23:09;;;;;;;6.43;5.75;;;;;;;15.88;71.21;100843.75;5052313;28;19921;-82
2022/04/25 00:25:36;;;;;;;6.97;5.80;;;;;;;15.95;71.21;100858.03;5052083;28;20059;-82
2022/04/25 00:28:03;;;;;;;6.63;5.82;;;;;;;15.91;71.33;100845.59;5052650;28;20037;-82
2022/04/25 00:30:29;;;;;;;6.88;6.13;;;;;;;15.86;71.21;100834.03;5052061;28;20571;-82
2022/04/25 00:32:58;;;;;;;7.10;5.80;;;;;;;15.94;71.30;100839.53;5017751;28;20043;-82
2022/04/25 00:35:25;;;;;;;6.88;5.72;;;;;;;15.81;71.20;100811.91;5051573;28;20040;-82
2022/04/25 00:37:52;;;;;;;9.73;6.20;;;;;;;15.94;71.34;100826.34;5052663;28;20486;-82
2022/04/25 00:40:21;;;;;;;;;;;;;;;15.99;71.66;100820.41;5052193;28;20559;-82
2022/04/25 00:42:48;;;;;;;8.73;6.35;;;;;;;15.93;71.47;100819.31;5034230;28;19943;-82
2022/04/25 00:45:14;;;;;;;7.95;6.47;;;;;;;15.81;71.55;100801.34;5033993;28;20029;-82
2022/04/25 00:47:40;;;;;;;;;;;;;;;15.98;71.63;100817.72;5038816;28;20031;-82
2022/04/25 00:50:06;;;;;;;8.07;6.40;;;;;;;15.92;71.38;100817.50;5041565;28;19963;-81
2022/04/25 00:52:32;;;;;;;8.30;6.60;;;;;;;15.86;71.17;100816.47;5034031;28;20087;-81
2022/04/25 00:55:01;;;;;;;7.65;6.60;;;;;;;15.78;71.26;100796.88;5051494;28;20033;-82
2022/04/25 00:57:27;;;;;;;8.57;7.07;;;;;;;15.90;70.94;100813.97;5051750;28;20029;-82
2022/04/25 00:59:54;;;;;;;8.98;6.47;;;;;;;15.93;71.20;100819.31;5052011;28;20028;-82
2022/04/25 01:02:20;;;;;;;8.60;6.70;;;;;;;15.87;71.17;100812.09;5034134;28;20023;-82
2022/04/25 01:04:45;;;;;;;7.53;6.53;;;;;;;15.94;71.12;100821.09;5052015;28;20044;-81
2022/04/25 01:07:11;;;;;;;7.18;6.30;;;;;;;15.92;71.16;100822.78;5051815;28;20037;-81
2022/04/25 01:09:37;;;;;;;7.03;6.30;;;;;;;15.92;71.16;100822.78;5034199;28;20108;-81
2022/04/25 01:12:03;;;;;;;7.57;6.60;;;;;;;15.89;71.14;100813.03;5051962;28;20127;-81
2022/04/25 01:14:28;;;;;;;8.15;6.07;;;;;;;15.91;70.94;100816.63;5051579;28;20017;-81
2022/04/25 01:16:54;;;;;;;6.82;6.13;;;;;;;15.91;71.19;100818.38;5051796;28;20087;-81
2022/04/25 01:19:20;;;;;;;6.60;5.90;;;;;;;15.84;71.25;100798.84;5051947;28;20029;-81
2022/04/25 01:22:13;;;;;;;7.65;6.63;;;;;;;15.92;71.41;100807.91;5051761;28;20041;-81
2022/04/25 01:27:23;;;;;;;6.75;6.00;;;;;;;15.69;71.17;100767.59;5051833;28;20534;-81
2022/04/25 01:29:52;;;;;;;7.68;6.28;;;;;;;15.83;71.17;100795.31;5051066;28;20100;-82
2022/04/25 01:32:19;;;;;;;8.00;6.38;;;;;;;15.93;70.87;100808.78;5033675;28;20037;-82
2022/04/25 01:34:45;;;;;;;10.15;7.20;;;;;;;15.92;70.57;100812.25;5033554;28;20025;-82
2022/04/25 01:37:12;;;;;;;8.00;6.35;;;;;;;15.91;70.57;100807.84;5050795;28;20031;-82
2022/04/25 01:39:42;;;;;;;7.30;6.13;;;;;;;15.90;71.04;100808.69;5033422;28;20040;-82
2022/04/25 01:42:08;;;;;;;7.60;6.00;;;;;;;15.87;71.08;100805.13;5061858;28;20036;-82
2022/04/25 01:44:35;;;;;;;6.97;6.28;;;;;;;15.81;70.93;100783.84;5039009;28;20485;-81
2022/04/25 01:47:00;;;;;;;7.47;6.20;;;;;;;15.89;70.86;100807.78;5033661;28;20044;-82
2022/04/25 01:49:26;;;;;;;8.05;7.03;;;;;;;15.91;71.07;100806.09;5032807;28;20033;-82
2022/04/25 01:51:52;;;;;;;7.65;6.82;;;;;;;15.83;70.72;100787.44;5033175;28;20116;-81
2022/04/25 01:54:26;;;;;;;8.55;6.60;;;;;;;15.91;70.79;100805.19;5050405;28;20041;-82
2022/04/25 01:56:55;;;;;;;7.47;6.18;;;;;;;15.85;70.76;100788.38;5033450;28;20436;-82
2022/04/25 01:59:22;;;;;;;7.50;6.15;;;;;;;15.88;70.98;100793.72;5038717;28;20112;-81
2022/04/25 02:01:49;;;;;;;7.22;5.93;;;;;;;15.90;71.17;100796.41;5033199;28;20405;-81
2022/04/25 02:04:14;;;;;;;7.13;6.43;;;;;;;15.90;70.98;100793.78;5050807;28;20115;-81
2022/04/25 02:06:41;;;;;;;10.07;6.30;;;;;;;15.86;71.19;100795.41;5032952;28;20490;-81
2022/04/25 02:09:06;;;;;;;7.65;6.40;;;;;;;15.83;71.07;100794.41;5033109;28;20052;-81
2022/04/25 02:11:32;;;;;;;7.20;6.40;;;;;;;15.79;70.65;100793.44;5049784;28;20405;-81
2022/04/25 02:13:58;;;;;;;8.68;6.53;;;;;;;15.76;71.10;100782.78;5050688;28;20450;-82
2022/04/25 02:16:25;;;;;;;8.55;6.65;;;;;;;15.89;71.07;100799.88;5050641;28;20048;-81
2022/04/25 02:18:51;;;;;;;6.85;6.00;;;;;;;15.87;71.06;100796.31;5033091;28;20064;-81
2022/04/25 02:21:18;;;;;;;7.68;6.60;;;;;;;15.85;70.95;100797.97;5032941;28;20029;-81
2022/04/25 02:23:43;;;;;;;;;;;;;;;15.88;70.83;100793.72;5033291;28;20033;-81
2022/04/25 02:26:09;;;;;;;8.05;6.35;;;;;;;15.82;70.89;100800.53;5032930;28;19939;-81
2022/04/25 02:28:37;;;;;;;7.45;6.20;;;;;;;15.75;71.29;100786.28;5032920;28;20025;-81
2022/04/25 02:31:04;;;;;;;7.00;6.30;;;;;;;15.84;71.16;100806.75;5032713;28;20029;-81
2022/04/25 02:33:34;;;;;;;7.95;6.50;;;;;;;15.74;71.14;100783.59;5050372;28;20033;-81
2022/04/25 02:36:02;;;;;;;7.55;5.72;;;;;;;15.82;71.09;100800.53;5030895;28;20465;-81
2022/04/25 02:38:28;;;;;;;7.30;6.03;;;;;;;15.80;71.23;100795.22;5038012;28;20027;-82
2022/04/25 02:41:06;;;;;;;8.45;6.65;;;;;;;15.80;70.95;100787.31;5050884;28;20033;-82
2022/04/25 02:43:34;;;;;;;7.10;6.40;;;;;;;15.81;71.16;100793.47;5050797;28;20021;-81
2022/04/25 02:46:04;;;;;;;8.73;6.80;;;;;;;15.81;71.24;100790.81;5050829;28;20037;-81
2022/04/25 02:48:30;;;;;;;7.90;6.45;;;;;;;15.82;71.21;100785.63;5050852;28;20022;-82
2022/04/25 02:50:56;;;;;;;;;;;;;;;15.86;71.02;100805.94;5033135;28;20497;-82
2022/04/25 02:53:24;;;;;;;8.95;6.40;;;;;;;15.81;70.99;100804.00;5050679;28;20007;-82
2022/04/25 02:55:53;;;;;;;8.48;6.72;;;;;;;15.73;70.90;100781.81;5050323;28;20021;-82
2022/04/25 02:58:20;;;;;;;7.90;7.07;;;;;;;15.68;70.99;100781.59;5053507;28;20029;-82
2022/04/25 03:00:46;;;;;;;8.63;6.55;;;;;;;15.79;71.08;100798.69;5036426;28;20420;-82
2022/04/25 03:03:17;;;;;;;7.10;6.40;;;;;;;15.75;70.91;100788.91;5035549;28;20045;-82
2022/04/25 03:05:47;;;;;;;7.38;6.28;;;;;;;15.74;71.06;100797.63;5036089;28;20112;-82
2022/04/25 03:08:14;;;;;;;7.50;6.10;;;;;;;15.74;70.81;100794.13;5035777;28;20112;-82
2022/04/25 03:10:42;;;;;;;8.43;7.13;;;;;;;15.77;70.85;100803.03;5053914;28;20094;-82
2022/04/25 03:13:09;;;;;;;7.45;6.45;;;;;;;15.75;70.64;100793.28;5036453;28;20017;-82
2022/04/25 03:15:38;;;;;;;9.27;7.60;;;;;;;15.74;70.83;100795.00;5036402;28;20527;-81
2022/04/25 03:18:08;;;;;;;7.78;6.43;;;;;;;15.77;70.66;100805.66;5035726;28;20379;-82
2022/04/25 03:20:34;;;;;;;8.85;6.78;;;;;;;15.76;70.51;100800.31;5035377;28;20397;-82
2022/04/25 03:22:59;;;;;;;;;;;;;;;15.79;70.46;100796.06;5036510;28;20033;-82
2022/04/25 03:25:25;;;;;;;7.90;6.50;;;;;;;15.70;70.60;100793.06;5035722;28;19917;-82
2022/04/25 03:27:51;;;;;;;7.53;6.35;;;;;;;15.73;70.58;100794.97;5053261;28;20036;-81
2022/04/25 03:30:17;;;;;;;8.50;6.88;;;;;;;15.73;70.68;100794.97;5053576;28;20032;-81
2022/04/25 03:32:47;;;;;;;8.02;6.50;;;;;;;15.65;70.56;100782.41;5052880;28;20048;-82
2022/04/25 03:35:13;;;;;;;7.40;6.20;;;;;;;15.73;70.35;100790.59;5053335;28;20063;-82
2022/04/25 03:37:40;;;;;;;7.38;6.20;;;;;;;15.73;70.78;100794.97;5053460;28;20029;-81
2022/04/25 03:40:06;;;;;;;7.38;6.20;;;;;;;15.73;70.83;100792.34;5035135;28;20116;-82
2022/04/25 03:42:33;;;;;;;7.75;6.50;;;;;;;15.74;70.84;100789.72;5053312;28;20033;-81
2022/04/25 03:45:00;;;;;;;;;;;;;;;15.80;70.62;100792.56;5053249;28;20044;-82
2022/04/25 03:47:26;;;;;;;7.32;6.10;;;;;;;15.71;70.76;100799.25;5053250;28;20302;-82
2022/04/25 03:49:52;;;;;;;8.68;6.63;;;;;;;15.58;70.86;100784.78;5035498;28;20033;-81
2022/04/25 03:52:18;;;;;;;7.43;6.60;;;;;;;15.54;70.83;100775.00;5053001;28;20040;-81
2022/04/25 03:57:27;;;;;;;7.55;6.63;;;;;;;15.70;70.70;100813.25;5053344;28;20512;-82
2022/04/25 03:59:53;;;;;;;9.75;7.07;;;;;;;15.70;70.68;100803.59;5052650;28;20033;-82
2022/04/25 04:02:19;;;;;;;6.38;5.72;;;;;;;15.70;70.63;100798.34;5051973;28;20060;-82
2022/04/25 04:04:44;;;;;;;6.90;6.15;;;;;;;15.67;70.58;100798.25;5052496;28;20072;-82
2022/04/25 04:07:10;;;;;;;7.43;6.32;;;;;;;15.65;70.73;100792.03;5052917;28;20028;-82
2022/04/25 04:09:45;;;;;;;7.68;6.60;;;;;;;15.63;70.56;100802.50;5052587;28;20044;-81
2022/04/25 04:12:12;;;;;;;8.15;6.45;;;;;;;15.62;70.62;100802.44;5052691;28;20052;-82
2022/04/25 04:14:40;;;;;;;8.50;6.78;;;;;;;15.64;70.59;100806.03;5035036;28;20100;-82
2022/04/25 04:17:08;;;;;;;7.95;6.80;;;;;;;15.65;70.57;100813.97;5052368;28;20481;-81
2022/04/25 04:19:35;;;;;;;7.57;6.45;;;;;;;15.65;70.58;100813.09;5034172;28;20033;-82
2022/04/25 04:22:02;;;;;;;8.30;6.93;;;;;;;15.64;70.70;100811.28;5052472;28;20113;-82
2022/04/25 04:24:29;;;;;;;7.38;6.13;;;;;;;15.64;70.52;100814.84;5052538;28;20078;-81
2022/04/25 04:26:56;;;;;;;7.65;6.55;;;;;;;15.59;70.60;100802.34;5034264;28;20032;-81
2022/04/25 04:29:22;;;;;;;7.95;6.32;;;;;;;15.61;70.88;100813.84;5051634;28;20027;-81
2022/04/25 04:31:48;;;;;;;8.48;6.82;;;;;;;15.62;70.52;100812.97;5036759;28;20072;-81
2022/04/25 04:34:14;;;;;;;7.80;6.68;;;;;;;15.57;70.69;100812.81;5034145;28;20064;-81
2022/04/25 04:36:40;;;;;;;7.45;6.40;;;;;;;15.55;70.51;100803.09;5034515;28;20033;-81
2022/04/25 04:39:05;;;;;;;7.70;6.88;;;;;;;15.24;70.38;100760.84;5034560;28;20041;-81
2022/04/25 04:41:31;;;;;;;7.90;6.65;;;;;;;15.48;70.78;100796.72;5051969;28;20048;-81
2022/04/25 04:43:57;;;;;;;9.98;6.95;;;;;;;15.41;70.47;100800.88;5034888;28;20040;-81
2022/04/25 04:46:24;;;;;;;7.30;6.30;;;;;;;15.51;70.87;100814.34;5059480;28;20028;-82
2022/04/25 04:48:50;;;;;;;8.40;6.68;;;;;;;15.41;71.01;100806.16;5056630;28;20033;-83
2022/04/25 04:51:16;;;;;;;7.38;6.55;;;;;;;15.36;70.93;100796.28;5032769;28;20119;-84
2022/04/25 04:53:42;;;;;;;7.32;6.43;;;;;;;15.37;70.80;100785.84;5037934;28;20540;-84
2022/04/25 04:56:07;;;;;;;8.13;6.70;;;;;;;15.23;70.74;100763.41;5039098;28;20044;-83
2022/04/25 04:58:33;;;;;;;7.30;6.30;;;;;;;15.41;70.78;100800.00;5033587;28;20029;-83
2022/04/25 05:00:59;;;;;;;7.45;6.25;;;;;;;15.19;71.06;100772.91;5051776;28;20064;-83
2022/04/25 05:03:25;;;;;;;7.97;6.55;;;;;;;15.29;71.19;100797.81;5051730;28;20065;-84
2022/04/25 05:05:52;;;;;;;9.10;7.22;;;;;;;15.31;70.96;100797.88;5017680;28;20455;-84
2022/04/25 05:08:18;;;;;;;8.75;7.35;;;;;;;15.07;71.08;100768.13;5050296;28;20460;-84
2022/04/25 05:10:44;;;;;;;8.73;6.40;;;;;;;15.34;70.94;100809.38;5031625;28;20029;-83
2022/04/25 05:13:09;;;;;;;10.18;6.80;;;;;;;15.14;70.74;100769.25;5017485;28;20679;-83
2022/04/25 05:15:36;;;;;;;9.77;6.97;;;;;;;15.13;70.84;100772.69;5035311;28;20179;-83
2022/04/25 05:18:02;;;;;;;8.60;6.78;;;;;;;15.35;70.77;100816.47;5045400;28;20131;-83
2022/04/25 05:20:29;;;;;;;8.32;6.40;;;;;;;15.47;70.85;100834.41;5039569;28;20513;-83
2022/04/25 05:22:54;;;;;;;;;;;;;;;15.47;71.30;100837.94;5017848;28;20022;-84
2022/04/25 05:25:22;;;;;;;8.90;6.40;;;;;;;15.22;71.20;100794.09;5029476;28;19913;-84
2022/04/25 05:27:51;;;;;;;6.90;6.22;;;;;;;15.38;71.19;100821.81;5023328;28;20567;-83
2022/04/25 05:30:18;;;;;;;8.82;6.63;;;;;;;15.36;70.97;100820.88;5015638;28;20033;-83
2022/04/25 05:32:52;;;;;;;7.03;6.30;;;;;;;15.40;71.40;100827.13;5033208;28;20475;-83
2022/04/25 05:35:21;;;;;;;7.40;6.18;;;;;;;15.31;71.22;100809.28;5004748;28;20413;-83
2022/04/25 05:37:47;;;;;;;7.68;6.28;;;;;;;15.43;71.43;100830.78;5051409;28;20029;-83
2022/04/25 05:40:41;;;;;;;7.13;6.38;;;;;;;15.44;71.75;100837.81;5032174;28;20410;-83
2022/04/25 05:43:08;;;;;;;7.05;6.32;;;;;;;15.40;71.54;100821.88;5025719;28;20247;-83
2022/04/25 05:45:33;;;;;;;7.80;6.25;;;;;;;15.22;71.85;100793.19;5017545;28;20174;-83
2022/04/25 05:47:59;;;;;;;7.55;6.15;;;;;;;15.55;71.51;100834.69;5051515;28;20112;-83
2022/04/25 05:53:14;;;;;;;7.47;6.10;;;;;;;15.39;71.30;100792.03;5051305;28;20052;-83
2022/04/25 05:55:41;;;;;;;6.78;6.05;;;;;;;15.46;71.19;100804.56;5043924;28;20045;-82
2022/04/25 05:58:08;;;;;;;7.60;6.68;;;;;;;15.39;71.46;100791.16;5025026;28;20087;-85
2022/04/25 06:00:34;;;;;;;7.22;6.25;;;;;;;15.53;71.44;100815.31;5000957;28;20022;-80
2022/04/25 06:03:01;;;;;;;7.68;6.43;;;;;;;15.60;71.40;100827.81;4996481;28;20029;-90
2022/04/25 06:05:28;;;;;;;;;;;;;;;15.65;71.42;100824.50;5030296;28;20030;-84
2022/04/25 06:08:06;;;;;;;6.60;5.88;;;;;;;15.54;71.46;100811.84;5014693;28;19917;-82
2022/04/25 06:10:32;;;;;;;7.75;6.28;;;;;;;15.34;71.33;100777.81;5031799;28;20121;-82
2022/04/25 06:12:59;;;;;;;6.97;6.28;;;;;;;15.43;71.26;100788.69;5047827;28;20107;-82
2022/04/25 06:15:24;;;;;;;8.20;6.47;;;;;;;15.57;71.29;100818.09;5047832;28;20059;-81
2022/04/25 06:17:54;;;;;;;7.03;5.90;;;;;;;15.51;71.36;100798.56;5045572;28;20032;-81
2022/04/25 06:20:21;;;;;;;8.98;6.50;;;;;;;15.65;71.38;100819.25;5028177;28;20167;-81
2022/04/25 06:22:56;;;;;;;7.68;6.50;;;;;;;15.65;71.30;100815.72;5029531;28;20076;-80
2022/04/25 06:25:21;;;;;;;7.80;6.63;;;;;;;15.64;71.45;100813.91;4996402;28;20043;-81
2022/04/25 06:27:47;;;;;;;7.35;6.32;;;;;;;15.59;71.27;100805.88;5020846;28;20111;-81
2022/04/25 06:30:13;;;;;;;8.02;6.57;;;;;;;15.67;71.17;100821.94;5050766;28;20574;-81
2022/04/25 06:32:39;;;;;;;7.60;6.57;;;;;;;15.58;71.24;100797.94;5052345;28;20037;-81
2022/04/25 06:35:05;;;;;;;7.00;6.30;;;;;;;15.67;71.30;100820.19;5034862;28;20083;-81
2022/04/25 06:37:30;;;;;;;7.18;6.28;;;;;;;15.67;71.01;100814.03;5034368;28;20030;-82
2022/04/25 06:39:57;;;;;;;7.97;6.65;;;;;;;15.68;71.14;100811.47;5034632;28;20040;-82
2022/04/25 06:42:25;;;;;;;6.97;6.28;;;;;;;15.70;71.04;100815.88;5033400;28;20568;-81
2022/04/25 06:44:51;;;;;;;7.20;6.50;;;;;;;15.65;71.07;100800.81;5033963;28;20036;-81
2022/04/25 06:47:17;;;;;;;7.35;6.50;;;;;;;15.73;70.85;100823.94;5018745;28;20033;-81
2022/04/25 06:49:43;;;;;;;7.13;5.97;;;;;;;15.65;70.94;100806.09;5016328;28;20037;-81
2022/04/25 06:52:09;;;;;;;6.57;5.97;;;;;;;15.71;70.68;100815.94;5049377;28;20490;-81
2022/04/25 06:54:35;;;;;;;7.50;6.65;;;;;;;15.75;70.60;100822.25;5038172;28;20120;-81
2022/04/25 06:57:02;;;;;;;6.82;6.10;;;;;;;15.64;70.87;100814.84;5036527;28;20033;-81
2022/04/25 06:59:27;;;;;;;;;;;;;;;15.78;70.57;100820.59;5031350;28;20520;-81
2022/04/25 07:01:53;;;;;;;8.02;6.32;;;;;;;15.71;70.50;100820.31;5074328;28;19918;-81
2022/04/25 07:04:19;;;;;;;6.82;6.13;;;;;;;15.62;70.61;100807.72;5056420;28;20098;-80
2022/04/25 07:06:46;;;;;;;7.90;6.80;;;;;;;15.70;70.75;100822.03;5038532;28;20029;-81
2022/04/25 07:09:14;;;;;;;6.95;6.20;;;;;;;15.60;70.80;100807.69;5015917;28;20017;-81
2022/04/25 07:11:43;;;;;;;6.82;6.13;;;;;;;15.74;70.87;100830.97;5037817;28;20036;-81
2022/04/25 07:14:11;;;;;;;7.18;5.95;;;;;;;15.60;70.84;100810.31;5033330;28;20021;-81
2022/04/25 07:16:36;;;;;;;7.15;6.45;;;;;;;15.66;71.02;100818.41;5016243;28;20056;-81
2022/04/25 07:19:02;;;;;;;7.20;6.47;;;;;;;15.67;70.92;100830.72;5034182;28;20068;-81
2022/04/25 07:29:41;;;;;;;8.48;6.63;;;;;;;15.71;70.89;100834.38;5033956;28;20032;-82
2022/04/25 07:32:07;;;;;;;7.97;6.57;;;;;;;15.68;70.81;100822.00;5033550;28;20032;-83
2022/04/25 07:34:39;;;;;;;7.38;6.50;;;;;;;15.67;70.85;100822.81;5031789;28;20482;-82
2022/04/25 07:37:04;;;;;;;7.63;6.45;;;;;;;15.76;70.82;100822.28;5031787;28;20033;-81
2022/04/25 07:39:30;;;;;;;8.85;7.00;;;;;;;15.73;70.92;100822.19;5036360;28;20029;-82
2022/04/25 07:41:57;;;;;;;10.25;7.40;;;;;;;15.70;70.83;100810.63;5036075;28;20492;-82
2022/04/25 07:44:23;;;;;;;7.47;6.60;;;;;;;15.76;70.68;100821.38;5035564;28;20083;-82
2022/04/25 07:46:50;;;;;;;8.88;6.50;;;;;;;15.48;71.19;100788.84;5033157;28;20034;-81
2022/04/25 07:49:16;;;;;;;8.35;7.28;;;;;;;15.52;71.55;100798.63;5053520;28;20025;-81
2022/04/25 07:51:41;;;;;;;7.80;6.45;;;;;;;15.63;70.97;100796.34;5052827;28;20040;-83
2022/04/25 07:54:08;;;;;;;11.73;7.25;;;;;;;15.67;71.35;100803.50;5034851;28;20425;-84
2022/04/25 07:56:38;;;;;;;13.48;9.63;;;;;;;15.76;71.20;100814.38;5035335;28;20493;-82
2022/04/25 07:59:05;;;;;;;11.65;8.73;;;;;;;15.41;71.40;100760.53;5035671;28;20108;-82
2022/04/25 08:01:32;;;;;;;13.48;8.32;;;;;;;15.74;71.38;100813.44;5050701;28;20025;-82
2022/04/25 08:03:58;;;;;;;9.75;8.48;;;;;;;15.77;71.44;100810.91;5035800;28;20517;-82
2022/04/25 08:06:23;;;;;;;10.73;8.02;;;;;;;15.77;71.18;100803.03;5066593;28;20044;-81
2022/04/25 08:08:50;;;;;;;9.50;8.10;;;;;;;15.79;71.24;100808.31;5075271;28;20024;-82
2022/04/25 08:11:16;;;;;;;;;;;;;;;15.82;71.19;100813.69;5065951;28;20033;-81
2022/04/25 08:19:13;;;;;;;12.38;8.40;;;;;;;15.74;71.20;100762.53;5032660;28;20547;-81
2022/04/25 08:21:42;;;;;;;10.23;7.82;;;;;;;15.77;71.10;100766.16;5022203;28;20079;-81
2022/04/25 08:24:09;;;;;;;9.45;8.45;;;;;;;15.72;71.08;100753.69;5014186;28;20029;-80
2022/04/25 08:26:34;;;;;;;9.43;7.88;;;;;;;15.73;70.78;100761.63;5013915;28;20087;-81
2022/04/25 08:29:00;;;;;;;8.90;7.95;;;;;;;15.74;70.99;100767.78;5031005;28;20030;-82
2022/04/25 08:31:26;;;;;;;12.48;8.65;;;;;;;15.80;70.97;100781.16;5014836;28;20022;-82
2022/04/25 08:33:52;;;;;;;;;;;;;;;15.84;70.93;100786.56;5031869;28;20559;-83
2022/04/25 08:36:18;;;;;;;10.95;9.00;;;;;;;15.81;70.85;100778.59;5029796;28;19913;-82
2022/04/25 08:38:45;;;;;;;9.95;8.20;;;;;;;15.77;71.17;100776.69;5013414;28;20025;-82
2022/04/25 08:41:11;;;;;;;10.85;8.57;;;;;;;15.78;71.25;100775.81;5030425;28;20133;-82
2022/04/25 08:43:38;;;;;;;12.25;8.15;;;;;;;15.65;71.11;100752.56;5029535;28;20530;-82
2022/04/25 08:46:07;;;;;;;10.13;8.10;;;;;;;15.78;71.16;100778.47;5039270;28;20055;-81
2022/04/25 08:48:34;;;;;;;9.50;8.02;;;;;;;15.80;71.34;100795.22;5017699;28;20417;-83
2022/04/25 08:51:00;;;;;;;12.98;9.10;;;;;;;15.75;71.20;100785.38;5034586;28;20491;-83
2022/04/25 08:53:27;;;;;;;9.85;8.27;;;;;;;15.62;71.39;100768.22;5052045;28;20045;-81
2022/04/25 08:55:54;;;;;;;8.77;7.35;;;;;;;15.81;71.40;100791.75;5033587;28;20013;-81
2022/04/25 08:58:21;;;;;;;10.60;8.10;;;;;;;15.81;71.33;100780.28;5034598;28;20028;-81
2022/04/25 09:00:47;;;;;;;8.60;7.50;;;;;;;15.75;71.40;100769.59;5052002;28;20025;-81
2022/04/25 09:03:14;;;;;;;9.70;8.40;;;;;;;15.85;71.28;100783.09;5052147;28;20162;-81
2022/04/25 09:05:40;;;;;;;10.23;8.20;;;;;;;15.82;71.20;100779.47;5052063;28;20029;-81
2022/04/25 09:08:07;;;;;;;9.52;7.90;;;;;;;15.87;71.14;100802.47;5052129;28;20045;-81
2022/04/25 09:10:33;;;;;;;9.32;8.07;;;;;;;15.83;71.46;100805.84;5051892;28;20115;-82
2022/04/25 09:12:59;;;;;;;10.15;7.82;;;;;;;15.75;71.54;100788.91;5051978;28;20024;-82
2022/04/25 09:15:26;;;;;;;11.25;8.25;;;;;;;15.80;71.52;100787.31;5033902;28;20029;-81
2022/04/25 09:17:55;;;;;;;10.07;8.25;;;;;;;15.81;71.38;100794.38;5034047;28;20498;-81
2022/04/25 09:20:21;;;;;;;8.77;7.85;;;;;;;15.72;71.33;100770.34;5034430;28;20029;-81
2022/04/25 09:22:48;;;;;;;9.30;7.78;;;;;;;15.80;71.55;100787.31;5034078;28;20033;-81
2022/04/25 09:25:16;;;;;;;9.05;8.05;;;;;;;15.87;71.37;100788.41;5051554;28;20021;-81
2022/04/25 09:27:43;;;;;;;9.02;7.97;;;;;;;15.87;71.44;100788.41;5051751;28;20033;-81
2022/04/25 09:30:15;;;;;;;8.88;7.90;;;;;;;15.82;71.52;100776.84;5050849;28;20047;-80
2022/04/25 09:32:41;;;;;;;9.00;8.00;;;;;;;15.81;71.63;100775.94;5039774;28;20462;-81
2022/04/25 09:35:29;;;;;;;9.30;7.88;;;;;;;15.84;71.51;100790.94;5071674;28;20099;-81
2022/04/25 09:38:00;;;;;;;9.25;7.53;;;;;;;15.81;71.54;100791.75;5055310;28;20028;-81
2022/04/25 09:40:29;;;;;;;8.52;7.57;;;;;;;15.83;71.74;100776.88;5051376;28;20021;-80
2022/04/25 09:43:12;;;;;;;10.98;7.95;;;;;;;15.86;71.29;100779.63;5051460;28;20374;-81
2022/04/25 09:45:42;;;;;;;8.85;7.93;;;;;;;15.86;71.57;100776.97;5051461;28;20044;-81
2022/04/25 09:48:10;;;;;;;9.23;7.72;;;;;;;15.85;71.64;100779.56;5051339;28;20032;-81
2022/04/25 09:50:38;;;;;;;9.30;7.80;;;;;;;15.87;71.55;100772.59;5031377;28;20032;-81
2022/04/25 09:53:04;;;;;;;8.77;7.88;;;;;;;15.88;71.59;100771.78;5026440;28;20489;-81
2022/04/25 09:55:32;;;;;;;8.88;7.72;;;;;;;15.84;71.50;100773.41;5027766;28;20021;-81
2022/04/25 09:57:58;;;;;;;10.60;8.30;;;;;;;15.86;71.49;100776.09;5047929;28;20028;-81
2022/04/25 10:00:38;;;;;;;9.60;8.07;;;;;;;15.88;71.52;100767.38;5047024;28;20021;-81
2022/04/25 10:03:08;;;;;;;8.55;7.60;;;;;;;15.89;71.63;100768.28;5028387;28;20091;-81
2022/04/25 10:05:42;;;;;;;8.55;7.57;;;;;;;15.87;71.75;100772.59;5031210;28;20040;-81
2022/04/25 10:08:10;;;;;;;8.98;8.07;;;;;;;15.94;71.35;100774.59;5036482;28;20029;-81
2022/04/25 10:10:44;;;;;;;11.80;8.88;;;;;;;15.83;71.72;100762.81;5037869;28;20029;-81
2022/04/25 10:13:10;;;;;;;9.63;8.57;;;;;;;15.76;71.89;100740.66;5037810;28;20405;-81
2022/04/25 10:15:38;;;;;;;12.25;8.70;;;;;;;15.92;71.97;100757.84;5035593;28;20044;-82
2022/04/25 10:18:05;;;;;;;10.63;8.45;;;;;;;15.86;72.05;100750.66;5022440;28;20104;-81
2022/04/25 10:20:34;;;;;;;10.30;8.90;;;;;;;15.81;71.80;100748.69;5037295;28;20543;-81
2022/04/25 10:23:01;;;;;;;10.35;8.63;;;;;;;15.87;71.87;100765.63;5030155;28;20056;-81
2022/04/25 10:25:27;;;;;;;10.48;8.68;;;;;;;15.89;71.86;100755.09;5018055;28;20495;-81
2022/04/25 10:27:53;;;;;;;11.60;9.32;;;;;;;15.89;71.91;100749.84;5018102;28;20025;-80
2022/04/25 10:30:20;;;;;;;11.10;8.90;;;;;;;15.72;71.73;100720.34;5027422;28;20401;-81
2022/04/25 10:32:46;;;;;;;10.30;8.48;;;;;;;15.92;71.79;100749.97;5032185;28;20022;-81
2022/04/25 10:35:29;;;;;;;9.48;8.48;;;;;;;15.88;71.58;100740.16;5031489;28;20504;-81
2022/04/25 10:37:55;;;;;;;10.95;8.80;;;;;;;15.88;71.50;100729.63;5036536;28;20068;-81
2022/04/25 10:44:10;;;;;;;10.30;8.63;;;;;;;15.80;71.61;100712.69;5037649;28;20486;-81
2022/04/25 10:46:13;;;;;;;12.80;9.38;;;;;;;15.89;71.85;100736.69;5036663;28;20576;-82
2022/04/25 10:49:05;;;;;;;9.85;8.45;;;;;;;15.95;72.11;100746.53;5037659;28;20087;-81
2022/04/25 10:51:38;;;;;;;13.38;9.15;;;;;;;15.91;71.78;100731.47;5037385;28;20029;-81
2022/04/25 10:54:05;;;;;;;10.88;8.88;;;;;;;15.95;71.87;100747.41;5022100;28;20414;-81
2022/04/25 10:56:32;;;;;;;12.40;9.02;;;;;;;15.96;71.86;100735.13;5023178;28;20052;-81
2022/04/25 10:59:25;;;;;;;11.57;9.30;;;;;;;16.01;71.75;100741.44;5019728;28;20454;-81
2022/04/25 11:01:51;;;;;;;11.25;9.13;;;;;;;15.93;71.66;100717.50;5021369;28;20100;-81
2022/04/25 11:04:20;;;;;;;11.00;8.90;;;;;;;15.97;71.70;100723.75;5017309;28;20483;-81
2022/04/25 11:06:47;;;;;;;11.90;9.10;;;;;;;15.99;71.60;100719.44;4999698;28;20030;-81
2022/04/25 11:09:41;;;;;;;10.27;8.48;;;;;;;16.01;71.71;100717.75;5020976;28;20041;-81
2022/04/25 11:12:08;;;;;;;9.85;8.38;;;;;;;15.98;71.75;100717.63;5017137;28;20109;-81
2022/04/25 11:14:34;;;;;;;12.77;9.07;;;;;;;15.93;71.66;100706.06;5017535;28;20030;-81
2022/04/25 11:17:12;;;;;;;11.00;8.77;;;;;;;15.98;71.74;100715.91;5015558;28;20157;-81
2022/04/25 11:19:56;;;;;;;12.57;9.63;;;;;;;15.96;71.73;100708.78;5014331;28;20034;-81
2022/04/25 11:22:28;;;;;;;11.57;9.07;;;;;;;16.07;71.69;100712.66;5010398;28;20589;-82
2022/04/25 11:24:54;;;;;;;9.55;8.60;;;;;;;16.07;71.66;100728.47;5011322;28;20124;-81
2022/04/25 11:27:21;;;;;;;10.30;8.40;;;;;;;16.03;71.44;100721.31;5012633;28;20124;-81
2022/04/25 11:30:14;;;;;;;10.07;8.57;;;;;;;16.05;71.83;100732.81;5014536;28;20060;-81
2022/04/25 11:32:43;;;;;;;10.88;8.77;;;;;;;15.99;71.82;100719.44;5011845;28;20601;-81
2022/04/25 11:35:09;;;;;;;11.10;8.85;;;;;;;15.97;71.58;100698.31;5013600;28;20510;-81
2022/04/25 11:37:35;;;;;;;10.23;8.65;;;;;;;16.12;71.60;100718.06;5013400;28;20180;-82
2022/04/25 11:40:06;;;;;;;11.40;8.93;;;;;;;16.10;71.42;100718.00;5013008;28;20033;-82
2022/04/25 11:42:33;;;;;;;10.38;8.90;;;;;;;16.13;71.68;100712.84;5010414;28;20041;-82
2022/04/25 11:45:00;;;;;;;10.60;8.50;;;;;;;16.10;71.58;100711.84;5012611;28;20057;-82
2022/04/25 11:47:25;;;;;;;;;;;;;;;16.18;71.47;100724.41;5012908;28;20026;-82
2022/04/25 11:50:06;;;;;;;10.68;8.60;;;;;;;16.14;71.57;100721.66;5013873;28;19917;-81
2022/04/25 11:52:31;;;;;;;9.77;8.40;;;;;;;16.09;71.75;100716.25;5013661;28;20035;-82
2022/04/25 11:54:57;;;;;;;9.98;8.68;;;;;;;16.02;71.50;100698.44;5052739;28;20021;-82